Bellefountain, Indiana
Current Conditions -  °F | °C
As of 3:53 PM on Monday 22 Dec 2014 (Local Time) from KMIE Reporting Station
Overcast Overcast  
Wind Chill:   Ceiling: 9000
Heat Index:   Visibility: 8mi
Dew Point:   Wind: 12mph
Humidity: 79%   Direction: 130°SE
Pressure: 29.8"   Gusts: NA
Location:  40.4312°N, 85.0058°W
Report Text: KMIE 222053Z 13010KT 8SM SCT075 OVC090 06/02 A2980 RMK AO2 SLP097 T00560022 56028
Loading
Personal Weather Stations






























Interactive Weather Map New forecast layout! Learn more

10-Day Weather Forecast

Advertisements
Track Severe Weather on mobile